Time;durP1;ratioP1;P1;durP2;ratioP2;P2;SDS_P1;SDS_P2;PMS_P1;PMS_P2;Temp;Humidity;BMP_temperature;BMP_pressure;BME280_temperature;BME280_humidity;BME280_pressure;Samples;Min_cycle;Max_cycle;Signal;HPM_P1;HPM_P2
2021/12/10 04:03:06;;;;;;;6.60;3.47;;;2.80;88.20;;;;;;5111690;27;20116;-48
2021/12/10 04:05:32;;;;;;;6.90;3.75;;;2.80;88.30;;;;;;5111319;28;20036;-48
2021/12/10 04:07:58;;;;;;;9.25;3.72;;;2.80;88.10;;;;;;5110870;28;20048;-49
2021/12/10 04:10:24;;;;;;;9.80;3.90;;;3.00;87.80;;;;;;5110999;28;20413;-50
2021/12/10 04:12:50;;;;;;;9.75;3.50;;;2.90;87.80;;;;;;5109515;28;20422;-48
2021/12/10 04:15:20;;;;;;;12.52;4.30;;;2.80;87.80;;;;;;5110804;28;20032;-50
2021/12/10 04:17:48;;;;;;;13.60;3.80;;;2.90;87.80;;;;;;5109286;28;20032;-49
2021/12/10 04:20:16;;;;;;;12.60;3.70;;;2.90;87.60;;;;;;5110757;28;20036;-49
2021/12/10 04:22:46;;;;;;;5.30;3.30;;;3.00;87.30;;;;;;5110448;28;20468;-49
2021/12/10 04:25:15;;;;;;;11.20;3.67;;;3.00;87.00;;;;;;5110745;28;20095;-54
2021/12/10 04:27:42;;;;;;;9.73;3.90;;;2.90;87.30;;;;;;5110459;28;20047;-50
2021/12/10 04:30:11;;;;;;;9.93;3.83;;;2.90;87.20;;;;;;5110333;28;20020;-52
2021/12/10 04:32:38;;;;;;;11.43;3.80;;;2.80;87.40;;;;;;5110248;28;20035;-50
2021/12/10 04:35:05;;;;;;;10.30;5.55;;;2.80;87.50;;;;;;5110527;28;20025;-50
2021/12/10 04:37:30;;;;;;;30.88;5.03;;;2.80;87.70;;;;;;5110333;28;20028;-50
2021/12/10 04:39:56;;;;;;;9.88;3.60;;;2.90;87.80;;;;;;5110434;28;20036;-49
2021/12/10 04:42:24;;;;;;;7.93;3.13;;;3.00;87.20;;;;;;5110155;28;20109;-50
2021/12/10 04:44:55;;;;;;;15.73;4.03;;;3.00;87.00;;;;;;5109974;28;20024;-49
2021/12/10 04:47:22;;;;;;;11.55;4.22;;;2.80;86.90;;;;;;5110292;28;20032;-52
2021/12/10 04:49:48;;;;;;;8.23;3.78;;;2.80;87.30;;;;;;5110255;28;20523;-50
2021/12/10 04:52:14;;;;;;;8.13;3.28;;;2.70;87.50;;;;;;5109897;28;20055;-48
2021/12/10 04:54:40;;;;;;;8.10;4.03;;;2.60;87.70;;;;;;5110173;28;20063;-48
2021/12/10 04:57:08;;;;;;;6.10;3.03;;;2.70;87.50;;;;;;5109861;28;20028;-50
2021/12/10 04:59:36;;;;;;;7.38;3.30;;;2.80;87.30;;;;;;5110501;28;20468;-50
2021/12/10 05:02:06;;;;;;;8.50;2.75;;;2.90;86.90;;;;;;5109560;28;20415;-50
2021/12/10 05:04:32;;;;;;;13.60;2.97;;;3.00;86.30;;;;;;5110037;28;20024;-53
2021/12/10 05:06:59;;;;;;;7.38;3.30;;;3.00;86.20;;;;;;5108392;28;20399;-50
2021/12/10 05:09:26;;;;;;;6.70;2.80;;;2.90;85.90;;;;;;5109567;28;20028;-48
2021/12/10 05:11:53;;;;;;;8.70;2.95;;;2.90;85.80;;;;;;5108285;28;20089;-48
2021/12/10 05:14:20;;;;;;;8.60;3.13;;;2.80;86.20;;;;;;5096611;28;20056;-47
2021/12/10 05:16:48;;;;;;;7.65;2.80;;;2.90;86.20;;;;;;5096081;28;20035;-49
2021/12/10 05:19:20;;;;;;;9.45;3.08;;;3.00;86.00;;;;;;5095790;28;20032;-48
2021/12/10 05:21:47;;;;;;;13.68;3.20;;;2.90;85.80;;;;;;5095588;28;20155;-51
2021/12/10 05:24:14;;;;;;;9.98;2.58;;;3.00;85.80;;;;;;5095786;28;20098;-49
2021/12/10 05:26:40;;;;;;;7.05;2.92;;;2.90;85.50;;;;;;5095891;28;20097;-49
2021/12/10 05:29:07;;;;;;;5.90;2.22;;;2.90;85.70;;;;;;5095599;28;20031;-47
2021/12/10 05:31:34;;;;;;;6.60;2.53;;;2.90;85.80;;;;;;5095863;28;20097;-48
2021/12/10 05:34:00;;;;;;;7.18;3.25;;;2.80;86.00;;;;;;5094542;28;20067;-50
2021/12/10 05:36:27;;;;;;;7.38;2.53;;;2.80;86.30;;;;;;5094164;28;20557;-49
2021/12/10 05:38:53;;;;;;;8.60;2.33;;;2.70;86.40;;;;;;5095652;28;20113;-49
2021/12/10 05:41:19;;;;;;;14.48;3.55;;;2.60;86.80;;;;;;5095359;28;20551;-48
2021/12/10 05:43:46;;;;;;;12.18;3.85;;;2.60;86.80;;;;;;5095397;28;20027;-50
2021/12/10 05:46:12;;;;;;;5.22;2.10;;;2.60;86.80;;;;;;5095496;28;20443;-52
2021/12/10 05:48:40;;;;;;;8.68;3.03;;;2.70;86.60;;;;;;5095562;28;20020;-51
2021/12/10 05:51:05;;;;;;;13.48;2.40;;;2.70;86.40;;;;;;5095206;28;20024;-50
2021/12/10 05:53:32;;;;;;;10.35;2.42;;;2.70;86.40;;;;;;5095440;28;20036;-49
2021/12/10 05:55:57;;;;;;;4.97;2.05;;;2.80;86.20;;;;;;5095243;28;20085;-52
2021/12/10 05:58:23;;;;;;;8.65;3.15;;;2.80;85.70;;;;;;5095327;28;20032;-52
2021/12/10 06:00:58;;;;;;;6.40;2.40;;;2.80;85.50;;;;;;5095232;28;20101;-49
2021/12/10 06:03:25;;;;;;;3.70;1.92;;;2.80;85.30;;;;;;5095184;28;20024;-48
2021/12/10 06:05:52;;;;;;;7.65;2.65;;;2.80;85.70;;;;;;5094634;28;20024;-51
2021/12/10 06:08:18;;;;;;;5.60;2.53;;;2.80;85.60;;;;;;5094909;28;20121;-50
2021/12/10 06:10:46;;;;;;;11.32;2.35;;;2.90;85.10;;;;;;5094851;28;20020;-49
2021/12/10 06:13:12;;;;;;;10.05;2.65;;;2.90;84.70;;;;;;5094979;28;20493;-53
2021/12/10 06:15:38;;;;;;;10.93;2.83;;;3.00;84.60;;;;;;5094732;28;20020;-49
2021/12/10 06:18:05;;;;;;;4.80;2.15;;;2.90;84.70;;;;;;5094518;28;20024;-38
2021/12/10 06:20:35;;;;;;;8.55;2.47;;;2.90;85.00;;;;;;5094272;28;20024;-39
2021/12/10 06:23:01;;;;;;;9.82;2.55;;;2.90;84.90;;;;;;5093518;28;20106;-39
2021/12/10 06:25:29;;;;;;;9.60;1.70;;;2.90;84.90;;;;;;5093608;28;20038;-38
2021/12/10 06:27:55;;;;;;;8.35;2.80;;;2.90;84.80;;;;;;5094385;28;20069;-39
2021/12/10 06:30:24;;;;;;;9.77;3.97;;;2.90;84.70;;;;;;5094260;28;20024;-38
2021/12/10 06:32:54;;;;;;;5.63;2.03;;;2.80;84.90;;;;;;5094886;28;20031;-38
2021/12/10 06:35:21;;;;;;;10.48;2.70;;;2.90;84.80;;;;;;5093894;28;20032;-38
2021/12/10 06:37:47;;;;;;;8.77;3.00;;;2.80;84.70;;;;;;5094206;28;20042;-39
2021/12/10 06:40:20;;;;;;;12.18;2.92;;;2.80;85.20;;;;;;5094166;28;20024;-39
2021/12/10 06:42:46;;;;;;;3.20;2.33;;;3.00;84.90;;;;;;5092511;28;20395;-38
2021/12/10 06:45:14;;;;;;;6.32;1.55;;;3.00;84.60;;;;;;5092672;28;20020;-39
2021/12/10 06:47:43;;;;;;;6.70;3.13;;;3.10;84.30;;;;;;5094571;28;20020;-38
2021/12/10 06:50:09;;;;;;;12.32;2.50;;;2.90;84.10;;;;;;5095515;28;20111;-39
2021/12/10 06:52:35;;;;;;;5.07;2.38;;;2.80;84.90;;;;;;5093929;28;20028;-38
2021/12/10 06:55:00;;;;;;;8.80;2.30;;;2.70;85.20;;;;;;5094074;28;20048;-38
2021/12/10 06:57:26;;;;;;;9.15;2.92;;;2.70;85.20;;;;;;5093916;28;20038;-39
2021/12/10 06:59:53;;;;;;;6.93;2.85;;;2.70;85.10;;;;;;5093362;28;20024;-39
2021/12/10 07:02:19;;;;;;;6.28;3.35;;;2.60;85.30;;;;;;5093689;28;20040;-38
2021/12/10 07:04:45;;;;;;;11.77;3.15;;;2.60;85.70;;;;;;5093616;28;20028;-38
2021/12/10 07:07:11;;;;;;;10.20;3.67;;;2.80;85.20;;;;;;5093749;28;20021;-42
2021/12/10 07:09:38;;;;;;;14.05;3.63;;;2.80;85.00;;;;;;5094159;28;20051;-38
2021/12/10 07:12:07;;;;;;;10.23;2.85;;;2.80;84.90;;;;;;5092996;28;20107;-40
2021/12/10 07:14:33;;;;;;;7.03;3.15;;;2.80;84.30;;;;;;5094869;28;20036;-38
2021/12/10 07:16:59;;;;;;;10.30;2.65;;;2.80;84.90;;;;;;5094222;28;20050;-39
2021/12/10 07:19:27;;;;;;;14.32;3.42;;;2.70;84.80;;;;;;5093424;28;20020;-39
2021/12/10 07:21:53;;;;;;;9.00;2.35;;;2.70;85.20;;;;;;5091807;28;20031;-39
2021/12/10 07:24:20;;;;;;;10.80;2.85;;;2.50;85.40;;;;;;5093724;28;20463;-38
2021/12/10 07:26:46;;;;;;;12.15;3.30;;;2.50;86.00;;;;;;5093114;28;20444;-38
2021/12/10 07:29:13;;;;;;;9.63;2.55;;;2.60;85.60;;;;;;5093437;28;20072;-41
2021/12/10 07:31:41;;;;;;;5.90;3.05;;;2.50;85.70;;;;;;5093190;28;20103;-38
2021/12/10 07:34:07;;;;;;;14.27;3.75;;;2.40;86.10;;;;;;5092794;28;20052;-38
2021/12/10 07:36:33;;;;;;;9.68;3.83;;;2.30;86.30;;;;;;5093187;28;20073;-38
2021/12/10 07:38:59;;;;;;;9.23;4.40;;;2.60;85.80;;;;;;5093182;28;20543;-39
2021/12/10 07:41:26;;;;;;;5.15;2.97;;;2.70;85.20;;;;;;5093011;28;20032;-39
2021/12/10 07:43:52;;;;;;;9.65;3.65;;;2.70;84.60;;;;;;5091471;28;20100;-39
2021/12/10 07:46:18;;;;;;;6.05;3.47;;;2.60;85.00;;;;;;5091430;28;20031;-39
2021/12/10 07:48:44;;;;;;;6.60;3.72;;;2.60;85.10;;;;;;5092913;28;20415;-39
2021/12/10 07:51:22;;;;;;;12.82;3.08;;;2.60;85.20;;;;;;5092621;28;20086;-39
2021/12/10 07:53:51;;;;;;;5.97;2.75;;;2.60;85.30;;;;;;5093838;28;20038;-39
2021/12/10 07:56:18;;;;;;;12.32;2.70;;;2.60;85.20;;;;;;5093185;28;20100;-39
2021/12/10 07:58:43;;;;;;;6.55;2.50;;;2.70;84.70;;;;;;5091798;28;20367;-42
2021/12/10 14:03:07;;;;;;;7.30;2.95;;;5.90;60.80;;;;;;5027853;28;20350;-39
2021/12/10 14:05:38;;;;;;;11.32;3.30;;;5.90;59.90;;;;;;5027609;28;20029;-38
2021/12/10 14:08:12;;;;;;;3.63;1.85;;;6.00;60.10;;;;;;5009964;28;20040;-38
2021/12/10 14:10:47;;;;;;;2.67;1.73;;;6.10;59.10;;;;;;5027895;28;20030;-38
2021/12/10 14:13:30;;;;;;;6.70;1.60;;;6.00;59.50;;;;;;5027768;28;20109;-38
2021/12/10 14:16:06;;;;;;;9.05;2.60;;;5.80;60.00;;;;;;5027191;28;20453;-38
2021/12/10 14:18:45;;;;;;;8.63;2.03;;;5.90;60.30;;;;;;5020058;28;20026;-38
2021/12/10 14:21:12;;;;;;;7.10;2.10;;;5.90;60.10;;;;;;5026960;28;20064;-39
2021/12/10 14:23:57;;;;;;;5.45;1.63;;;5.90;60.50;;;;;;5027083;28;20055;-39
2021/12/10 14:26:26;;;;;;;5.03;1.60;;;5.90;60.60;;;;;;5027093;28;20022;-38
2021/12/10 14:29:01;;;;;;;5.28;1.98;;;5.70;61.00;;;;;;5025335;28;20025;-39
2021/12/10 14:31:46;;;;;;;6.32;2.42;;;5.80;61.70;;;;;;5026587;28;20029;-39
2021/12/10 14:34:16;;;;;;;13.05;2.28;;;5.80;61.10;;;;;;5026872;28;20534;-40
2021/12/10 14:36:45;;;;;;;3.60;1.60;;;5.80;61.60;;;;;;5025326;28;20029;-38
2021/12/10 14:39:13;;;;;;;10.82;2.67;;;5.70;62.30;;;;;;5026889;28;20028;-39
2021/12/10 14:41:45;;;;;;;9.55;3.13;;;5.70;62.50;;;;;;5026724;28;20189;-39
2021/12/10 14:44:22;;;;;;;4.35;2.30;;;5.70;62.40;;;;;;5027207;28;20036;-39
2021/12/10 14:46:53;;;;;;;5.20;2.35;;;5.70;62.10;;;;;;5027147;28;20021;-39
2021/12/10 14:49:33;;;;;;;9.75;2.15;;;5.80;62.40;;;;;;5025856;28;20322;-39
2021/12/10 14:52:22;;;;;;;6.85;2.90;;;5.80;61.70;;;;;;5026580;28;20026;-39
2021/12/10 14:55:06;;;;;;;5.55;2.78;;;5.90;61.10;;;;;;5031256;28;20036;-39
2021/12/10 14:57:56;;;;;;;5.40;2.00;;;5.80;61.10;;;;;;5026314;28;20058;-39
2021/12/10 15:00:35;;;;;;;11.95;3.08;;;5.60;61.40;;;;;;5026816;28;20049;-38
2021/12/10 15:03:07;;;;;;;3.42;1.70;;;5.50;61.50;;;;;;5026005;28;20085;-38
2021/12/10 15:05:39;;;;;;;3.97;2.08;;;5.50;61.20;;;;;;5026477;28;20037;-39
2021/12/10 15:08:08;;;;;;;4.40;2.17;;;5.30;62.10;;;;;;5027010;28;20044;-39
2021/12/10 15:10:44;;;;;;;3.00;2.03;;;5.40;62.30;;;;;;5026868;28;20075;-39
2021/12/10 15:13:33;;;;;;;5.60;2.03;;;5.30;63.10;;;;;;5021000;28;20022;-39
2021/12/10 15:16:26;;;;;;;3.03;1.50;;;5.30;63.10;;;;;;5013626;28;20034;-39
2021/12/10 15:19:09;;;;;;;3.58;1.73;;;5.50;62.80;;;;;;5013829;28;20386;-54
2021/12/10 15:21:50;;;;;;;9.38;1.55;;;5.40;63.20;;;;;;5013730;28;20065;-38
2021/12/10 15:24:46;;;;;;;17.38;5.57;;;5.30;63.80;;;;;;5013944;28;20060;-39
2021/12/10 15:27:19;;;;;;;4.43;2.15;;;5.30;63.80;;;;;;5012923;28;20053;-39
2021/12/10 15:29:48;;;;;;;8.57;2.05;;;5.20;64.20;;;;;;5012669;28;20041;-39
2021/12/10 15:32:30;;;;;;;3.88;2.03;;;5.20;64.30;;;;;;5011236;28;20032;-38
2021/12/10 15:35:12;;;;;;;3.75;2.40;;;5.10;64.70;;;;;;5016555;28;20026;-38
2021/12/10 15:37:43;;;;;;;5.35;2.28;;;5.20;64.70;;;;;;5012648;28;20029;-38
2021/12/10 15:40:40;;;;;;;5.50;2.55;;;5.20;64.90;;;;;;5013511;28;20025;-38
2021/12/10 15:43:20;;;;;;;10.70;3.22;;;5.10;65.40;;;;;;5013193;28;20346;-39
2021/12/10 15:45:51;;;;;;;6.30;3.13;;;5.50;64.30;;;;;;5013115;28;20457;-39
2021/12/10 15:48:18;;;;;;;5.88;2.80;;;5.30;65.20;;;;;;5013647;28;20045;-39
2021/12/10 15:50:47;;;;;;;10.07;4.78;;;5.30;65.10;;;;;;5012708;28;20103;-38
2021/12/10 15:53:17;;;;;;;8.60;3.67;;;5.50;64.70;;;;;;4994460;28;20018;-40
2021/12/10 15:55:48;;;;;;;8.55;3.78;;;5.60;63.80;;;;;;5012515;28;20508;-39
2021/12/10 15:58:22;;;;;;;;;;;5.60;63.90;;;;;;5011960;28;20026;-39
2021/12/10 16:00:50;;;;;;;9.05;2.47;;;5.70;63.60;;;;;;5011704;28;19989;-39
2021/12/10 16:03:15;;;;;;;5.95;2.80;;;5.60;63.70;;;;;;5010988;28;20026;-39
2021/12/10 16:05:42;;;;;;;5.95;2.97;;;5.60;64.10;;;;;;5012786;28;20091;-38
2021/12/10 16:08:08;;;;;;;10.13;3.17;;;5.50;64.90;;;;;;5012797;28;20037;-38
2021/12/10 16:10:42;;;;;;;16.42;6.93;;;5.40;65.20;;;;;;5012057;28;20029;-38
2021/12/10 16:13:15;;;;;;;11.32;3.90;;;5.30;65.70;;;;;;5010443;28;20026;-38
2021/12/10 16:15:54;;;;;;;10.15;4.00;;;5.30;65.80;;;;;;5012061;28;20053;-39
2021/12/10 16:18:23;;;;;;;8.95;4.10;;;5.30;65.90;;;;;;5010185;28;20109;-39
2021/12/10 16:20:57;;;;;;;12.48;4.18;;;5.30;65.50;;;;;;5011224;28;20022;-39
2021/12/10 16:23:45;;;;;;;12.93;4.72;;;5.10;66.40;;;;;;5011671;28;20508;-39
2021/12/10 16:26:17;;;;;;;13.73;6.25;;;5.20;66.40;;;;;;5010254;28;20038;-39
2021/12/10 16:28:54;;;;;;;9.65;5.13;;;5.30;66.00;;;;;;5011518;28;20022;-38
2021/12/10 16:31:24;;;;;;;10.88;5.15;;;5.20;66.40;;;;;;5010927;28;20057;-39
2021/12/10 16:33:55;;;;;;;14.23;6.27;;;5.30;66.20;;;;;;5011901;28;20032;-39
2021/12/10 16:36:21;;;;;;;10.98;6.40;;;5.30;66.40;;;;;;5012320;28;20029;-38
2021/12/10 16:38:53;;;;;;;12.55;5.70;;;5.10;67.00;;;;;;5011465;28;20030;-39
2021/12/10 16:41:23;;;;;;;10.68;4.90;;;5.00;67.00;;;;;;5012134;28;20113;-39
2021/12/10 16:43:53;;;;;;;13.93;5.88;;;5.00;67.60;;;;;;5011826;28;20106;-44
2021/12/10 16:46:22;;;;;;;15.27;6.45;;;4.90;67.80;;;;;;5012307;28;20026;-39
2021/12/10 16:48:55;;;;;;;14.77;7.00;;;4.80;68.20;;;;;;5011855;28;20028;-39
2021/12/10 16:51:43;;;;;;;13.38;6.45;;;4.80;68.70;;;;;;5012194;28;20083;-39
2021/12/10 16:54:11;;;;;;;11.70;5.88;;;4.70;69.10;;;;;;5010337;28;20053;-40
2021/12/10 16:56:38;;;;;;;16.20;7.25;;;4.50;69.30;;;;;;5011225;28;20034;-38
2021/12/10 16:59:05;;;;;;;10.70;5.55;;;4.40;70.20;;;;;;5011161;28;20034;-39
2021/12/10 17:01:37;;;;;;;11.48;4.10;;;4.50;69.80;;;;;;5011371;28;20046;-40
2021/12/10 17:04:04;;;;;;;10.40;5.60;;;4.40;69.90;;;;;;5011215;28;20453;-38
2021/12/10 17:06:34;;;;;;;11.75;5.28;;;4.20;70.10;;;;;;5010014;28;20078;-38
2021/12/10 17:09:00;;;;;;;10.10;4.65;;;4.20;71.20;;;;;;5012128;28;20105;-38
2021/12/10 17:11:41;;;;;;;8.95;5.13;;;4.10;71.30;;;;;;5011291;28;20026;-39
2021/12/10 17:14:27;;;;;;;;;;;4.10;71.80;;;;;;5009648;28;20498;-39
2021/12/10 17:16:59;;;;;;;9.77;3.47;;;4.10;71.70;;;;;;5010663;28;19905;-40
2021/12/10 17:19:29;;;;;;;6.72;3.95;;;4.00;72.00;;;;;;5011136;28;20057;-39
2021/12/10 17:22:00;;;;;;;14.38;7.70;;;4.10;71.60;;;;;;5011320;28;20025;-39
2021/12/10 17:24:35;;;;;;;12.48;3.97;;;4.00;71.90;;;;;;5010555;28;20365;-40
2021/12/10 17:27:02;;;;;;;8.55;4.28;;;4.00;71.80;;;;;;5010814;28;20018;-39
2021/12/10 17:29:33;;;;;;;9.05;4.53;;;3.70;72.30;;;;;;5009447;28;20022;-38
2021/12/10 17:32:01;;;;;;;;;;;3.70;73.00;;;;;;5011113;28;20048;-38
2021/12/10 17:34:30;;;;;;;7.93;5.22;;;3.50;73.10;;;;;;5010912;28;19952;-39
2021/12/10 17:37:03;;;;;;;11.05;4.47;;;3.70;73.20;;;;;;5010405;28;20417;-38
2021/12/10 17:39:57;;;;;;;17.65;7.85;;;3.80;72.20;;;;;;5010770;28;20026;-38
2021/12/10 17:42:26;;;;;;;17.52;8.32;;;3.90;72.30;;;;;;5010894;28;20378;-39
2021/12/10 17:44:55;;;;;;;15.10;7.50;;;3.80;73.00;;;;;;5011175;28;20427;-39
2021/12/10 17:47:32;;;;;;;22.90;10.10;;;3.70;73.90;;;;;;5011230;28;20029;-38
2021/12/10 17:50:04;;;;;;;20.13;9.10;;;3.70;73.80;;;;;;5010510;28;20489;-39
2021/12/10 17:52:34;;;;;;;18.27;11.77;;;3.60;74.30;;;;;;5010842;28;20382;-40
2021/12/10 17:55:10;;;;;;;17.73;9.50;;;3.50;74.80;;;;;;5011911;28;20489;-38
2021/12/10 17:57:49;;;;;;;19.05;7.25;;;3.30;75.50;;;;;;5011018;28;20686;-40
2021/12/10 18:00:22;;;;;;;16.23;6.38;;;3.30;76.20;;;;;;5011168;28;20022;-40
2021/12/10 18:02:53;;;;;;;20.15;7.13;;;3.10;76.70;;;;;;5010583;28;20042;-39
2021/12/10 18:05:21;;;;;;;12.38;6.00;;;2.80;77.90;;;;;;5009632;28;20022;-39
2021/12/10 18:07:52;;;;;;;16.15;6.03;;;2.70;78.30;;;;;;5011000;28;20029;-39
2021/12/10 18:10:22;;;;;;;22.02;7.65;;;2.60;78.80;;;;;;5009281;28;20507;-39
2021/12/10 18:12:54;;;;;;;12.75;6.38;;;2.60;79.30;;;;;;5011651;28;20026;-40
2021/12/10 18:15:33;;;;;;;17.55;7.50;;;2.50;79.50;;;;;;5011632;28;20113;-39
2021/12/10 18:18:05;;;;;;;16.85;7.68;;;2.80;80.10;;;;;;5010020;28;20406;-40
2021/12/10 18:20:33;;;;;;;18.75;9.48;;;3.00;79.10;;;;;;5014447;28;20108;-39
2021/12/10 18:23:12;;;;;;;25.25;9.05;;;2.90;78.80;;;;;;5011125;28;20072;-39
2021/12/10 18:25:47;;;;;;;15.38;7.60;;;3.00;79.00;;;;;;5010955;28;20030;-40
2021/12/10 18:28:16;;;;;;;23.70;9.63;;;2.90;78.90;;;;;;5010983;28;20014;-39
2021/12/10 18:30:42;;;;;;;20.25;9.50;;;2.80;79.30;;;;;;5010702;28;20101;-40
2021/12/10 18:33:10;;;;;;;17.73;8.55;;;2.90;79.20;;;;;;5010587;28;20477;-39
2021/12/10 18:35:37;;;;;;;22.15;10.20;;;2.60;79.80;;;;;;5010504;28;20452;-39
2021/12/10 18:38:06;;;;;;;20.40;8.77;;;2.60;80.50;;;;;;5009916;28;20450;-39
2021/12/10 18:40:37;;;;;;;21.00;11.27;;;2.80;79.90;;;;;;5009829;28;20023;-39
2021/12/10 18:43:08;;;;;;;22.23;11.32;;;2.90;79.60;;;;;;5010025;28;20030;-38
2021/12/10 18:45:36;;;;;;;18.35;9.80;;;2.80;79.40;;;;;;5010393;28;20453;-38
2021/12/10 18:48:06;;;;;;;21.40;9.88;;;2.50;80.20;;;;;;5010600;28;20047;-40
2021/12/10 18:50:42;;;;;;;27.13;11.00;;;2.50;80.80;;;;;;5013564;28;20057;-38
2021/12/10 18:53:12;;;;;;;26.10;11.63;;;2.30;81.10;;;;;;5013667;28;20038;-39
2021/12/10 18:55:42;;;;;;;25.17;12.52;;;2.10;82.10;;;;;;5013480;28;20090;-38
2021/12/10 18:58:13;;;;;;;25.42;13.73;;;2.20;82.40;;;;;;5013921;28;20463;-38
2021/12/10 19:01:11;;;;;;;25.88;12.18;;;2.10;82.60;;;;;;5013354;28;20109;-49
2021/12/10 19:03:43;;;;;;;29.70;13.38;;;2.10;82.90;;;;;;5013770;28;20117;-50
2021/12/10 19:06:15;;;;;;;31.67;16.08;;;2.00;82.90;;;;;;5013101;28;20034;-49
2021/12/10 19:08:52;;;;;;;33.83;16.67;;;2.00;83.50;;;;;;5012939;28;20045;-49
2021/12/10 19:11:20;;;;;;;42.80;19.20;;;1.90;83.70;;;;;;5013076;28;20105;-51
2021/12/10 19:14:03;;;;;;;50.10;18.70;;;2.10;83.80;;;;;;5012949;28;20030;-50
2021/12/10 19:16:35;;;;;;;64.90;25.85;;;2.10;83.30;;;;;;5012764;28;20056;-49
2021/12/10 19:19:09;;;;;;;66.72;27.60;;;2.00;83.80;;;;;;5013272;28;20026;-51
2021/12/10 19:21:59;;;;;;;57.95;26.88;;;1.90;83.60;;;;;;5011064;28;20049;-49
2021/12/10 19:24:35;;;;;;;48.55;24.08;;;1.90;83.90;;;;;;5012420;28;20022;-49
2021/12/10 19:27:09;;;;;;;52.45;19.48;;;1.90;84.00;;;;;;5012194;28;20090;-50
2021/12/10 19:29:38;;;;;;;31.00;14.52;;;1.80;83.40;;;;;;5012187;28;20033;-49
2021/12/10 19:32:12;;;;;;;41.13;17.02;;;1.80;83.80;;;;;;5012938;28;20029;-51
2021/12/10 19:35:07;;;;;;;42.78;20.45;;;1.70;84.00;;;;;;5012052;28;20034;-49
2021/12/10 19:37:39;;;;;;;41.40;21.05;;;1.70;84.40;;;;;;5013651;28;20110;-48
2021/12/10 19:40:08;;;;;;;45.17;20.80;;;1.70;84.30;;;;;;5012696;28;20473;-49
2021/12/10 19:42:41;;;;;;;38.75;19.98;;;1.80;84.40;;;;;;5013031;28;20033;-53
2021/12/10 19:45:09;;;;;;;50.40;20.85;;;1.80;83.90;;;;;;5012780;28;20034;-49
2021/12/10 19:47:40;;;;;;;33.10;16.25;;;1.80;83.90;;;;;;5012678;28;20113;-50
2021/12/10 19:50:15;;;;;;;39.58;19.50;;;1.50;84.20;;;;;;5013442;28;20473;-52
2021/12/10 19:52:45;;;;;;;25.92;13.00;;;1.50;84.60;;;;;;5012340;28;20525;-52
2021/12/10 19:55:23;;;;;;;37.78;17.13;;;1.50;84.70;;;;;;5012935;28;20049;-51
2021/12/10 19:57:51;;;;;;;41.92;17.70;;;1.40;84.90;;;;;;5011323;28;20130;-49
2021/12/10 20:00:42;;;;;;;31.90;17.08;;;1.40;85.30;;;;;;5010866;28;20483;-52
2021/12/10 20:03:13;;;;;;;34.15;14.40;;;1.40;84.90;;;;;;5013106;28;20038;-49
2021/12/10 20:06:03;;;;;;;44.10;19.58;;;1.30;85.30;;;;;;5012346;28;20478;-49
2021/12/10 20:08:54;;;;;;;33.80;13.68;;;1.30;85.70;;;;;;5013128;28;20022;-49
2021/12/10 20:11:52;;;;;;;19.52;10.75;;;1.30;85.60;;;;;;5011854;28;20030;-52
2021/12/10 20:14:28;;;;;;;28.23;11.40;;;1.10;85.80;;;;;;5015437;28;20034;-49
2021/12/10 20:17:04;;;;;;;39.83;16.88;;;1.00;86.10;;;;;;5012505;28;20030;-49
2021/12/10 20:19:52;;;;;;;30.58;17.50;;;1.10;86.30;;;;;;5012455;28;20050;-50
2021/12/10 20:22:26;;;;;;;38.05;17.92;;;1.10;85.90;;;;;;5013071;28;20368;-50
2021/12/10 20:24:58;;;;;;;39.17;20.48;;;1.10;86.00;;;;;;5012608;28;20033;-51
2021/12/10 20:27:33;;;;;;;45.55;20.85;;;1.10;86.10;;;;;;5012258;28;20029;-50
2021/12/10 20:30:19;;;;;;;48.78;23.70;;;1.00;86.40;;;;;;5012962;28;20078;-50
2021/12/10 20:32:49;;;;;;;46.65;21.50;;;0.90;86.80;;;;;;5012718;28;20029;-49
2021/12/10 20:35:28;;;;;;;47.15;22.75;;;1.00;87.20;;;;;;5012422;28;20033;-49
2021/12/10 20:37:59;;;;;;;49.08;22.70;;;1.10;87.00;;;;;;5012491;28;20082;-48
2021/12/10 20:40:36;;;;;;;44.28;24.33;;;1.00;86.50;;;;;;5012111;28;20045;-48
2021/12/10 20:43:16;;;;;;;45.38;22.10;;;0.80;86.70;;;;;;5012024;28;20018;-49
2021/12/10 20:46:07;;;;;;;39.80;22.58;;;0.80;87.20;;;;;;5012550;28;20018;-49
2021/12/10 20:48:36;;;;;;;48.67;22.85;;;0.90;87.30;;;;;;5011887;28;20030;-50
2021/12/10 20:51:26;;;;;;;49.63;24.58;;;0.90;87.00;;;;;;5012024;28;20026;-49
2021/12/10 20:53:53;;;;;;;41.50;23.73;;;0.80;87.20;;;;;;5012704;28;20054;-51
2021/12/10 20:56:27;;;;;;;47.55;25.13;;;0.80;87.60;;;;;;5011916;28;20026;-50
2021/12/10 20:59:08;;;;;;;43.35;21.20;;;0.80;87.80;;;;;;5012967;28;20014;-50
2021/12/10 21:01:43;;;;;;;48.28;23.33;;;0.80;87.70;;;;;;5012014;28;20068;-49
2021/12/10 21:04:34;;;;;;;44.45;25.73;;;0.80;87.60;;;;;;5012570;28;20033;-53
2021/12/10 21:07:04;;;;;;;51.92;27.58;;;0.80;87.30;;;;;;5012261;28;20497;-53
2021/12/10 21:09:36;;;;;;;54.95;27.73;;;0.70;87.00;;;;;;5012333;28;20041;-51
2021/12/10 21:12:20;;;;;;;54.80;27.73;;;0.80;87.30;;;;;;5014732;28;20030;-53
2021/12/10 21:14:54;;;;;;;65.03;30.60;;;0.80;86.90;;;;;;5014797;28;20026;-52
2021/12/10 21:17:23;;;;;;;60.47;29.48;;;0.70;87.10;;;;;;5015175;28;20087;-52
2021/12/10 21:19:54;;;;;;;56.13;28.83;;;0.70;87.00;;;;;;5015334;28;20022;-49
2021/12/10 21:22:49;;;;;;;63.67;31.95;;;0.70;87.20;;;;;;5012155;28;20064;-51
2021/12/10 21:25:38;;;;;;;56.75;29.38;;;0.50;87.40;;;;;;5011957;28;20381;-50
2021/12/10 21:28:12;;;;;;;52.97;28.15;;;0.50;87.80;;;;;;5011979;28;20026;-53
2021/12/10 21:31:02;;;;;;;49.38;26.88;;;0.60;87.60;;;;;;5011856;28;20099;-49
2021/12/10 21:33:47;;;;;;;53.28;26.35;;;0.70;87.40;;;;;;5010924;28;20033;-50
2021/12/10 21:39:18;;;;;;;59.33;31.30;;;0.40;87.30;;;;;;4975452;28;20039;-49
2021/12/10 21:41:44;;;;;;;57.70;30.05;;;0.60;87.60;;;;;;5011808;28;20022;-49
2021/12/10 21:44:20;;;;;;;54.63;29.02;;;0.60;87.50;;;;;;5011409;28;20033;-51
2021/12/10 21:46:54;;;;;;;51.72;25.60;;;0.50;87.50;;;;;;5014240;28;20086;-49
2021/12/10 21:49:24;;;;;;;50.53;22.63;;;0.60;87.60;;;;;;4994382;28;20018;-52
2021/12/10 21:52:10;;;;;;;48.27;22.53;;;0.60;87.30;;;;;;5012354;28;20036;-53
2021/12/10 21:54:50;;;;;;;48.42;22.33;;;0.50;87.40;;;;;;5011586;28;20029;-48
2021/12/10 21:57:23;;;;;;;42.03;21.10;;;0.60;87.50;;;;;;5012178;28;20033;-54
2021/12/10 21:59:58;;;;;;;37.53;21.73;;;0.60;87.30;;;;;;5011617;28;20109;-53
2021/12/10 22:02:24;;;;;;;36.50;19.95;;;0.60;87.10;;;;;;5010918;28;20042;-41
2021/12/10 22:05:01;;;;;;;32.75;20.35;;;0.50;87.60;;;;;;5011114;28;20018;-40
2021/12/10 22:07:38;;;;;;;41.85;19.23;;;0.50;87.50;;;;;;5010083;28;20042;-40
2021/12/10 22:10:17;;;;;;;39.80;20.45;;;0.50;87.70;;;;;;5010635;28;20026;-39
2021/12/10 22:12:48;;;;;;;48.53;22.45;;;0.50;87.60;;;;;;5010653;28;20049;-40
2021/12/10 22:15:36;;;;;;;33.38;20.77;;;0.60;87.60;;;;;;5010886;28;20049;-40
2021/12/10 22:18:11;;;;;;;48.47;21.60;;;0.70;87.40;;;;;;5011121;28;20034;-41
2021/12/10 22:20:42;;;;;;;49.97;21.60;;;0.70;87.30;;;;;;5010941;28;20026;-39
2021/12/10 22:23:11;;;;;;;40.50;20.27;;;0.60;87.20;;;;;;5011476;28;20033;-40
2021/12/10 22:25:43;;;;;;;52.90;25.42;;;0.70;87.40;;;;;;5014251;28;20034;-39
2021/12/10 22:28:23;;;;;;;50.22;23.95;;;0.60;87.30;;;;;;5014123;28;20018;-38
2021/12/10 22:30:52;;;;;;;40.25;25.27;;;0.60;87.30;;;;;;5013741;28;20029;-38
2021/12/10 22:33:30;;;;;;;44.63;22.77;;;0.60;87.40;;;;;;5013483;28;20030;-39
2021/12/10 22:36:13;;;;;;;42.08;23.00;;;0.50;87.20;;;;;;5014028;28;20029;-39
2021/12/10 22:38:46;;;;;;;46.30;24.23;;;0.30;87.90;;;;;;5013872;28;20389;-39
2021/12/10 22:41:12;;;;;;;47.70;24.40;;;0.40;87.90;;;;;;5013635;28;20061;-38
2021/12/10 22:43:50;;;;;;;60.85;30.40;;;0.30;88.10;;;;;;5013991;28;20030;-39
2021/12/10 22:46:22;;;;;;;45.13;24.60;;;0.30;87.80;;;;;;5013988;28;20018;-39
2021/12/10 22:48:55;;;;;;;41.15;22.98;;;0.30;88.30;;;;;;5013849;28;20026;-40
2021/12/10 22:51:49;;;;;;;44.35;22.95;;;0.30;88.00;;;;;;5014628;28;20040;-38
2021/12/10 22:54:27;;;;;;;48.97;22.38;;;0.20;88.30;;;;;;5016257;28;20042;-38
2021/12/10 22:56:57;;;;;;;37.08;21.00;;;0.10;88.70;;;;;;5012787;28;20446;-40
2021/12/10 22:59:28;;;;;;;49.13;22.87;;;0.10;88.90;;;;;;5014330;28;20102;-38
